Time,TemperatureF,DewpointF,PressureIn,WindDirection,WindDirectionDegrees,WindSpeedMPH,WindSpeedGustMPH,Humidity,HourlyPrecipIn,Conditions,Clouds,dailyrainin,SoftwareType,DateUTC
2013-05-27 00:01:00,43.2,40.5,30.24,NNE,22,0.0,0.0,90,0.00,SCT,,0.00,WeatherDisplay:10.37,2013-05-27 04:01:00,
2013-05-27 00:02:00,43.2,40.8,30.25,NNE,22,0.0,0.0,91,0.00,SCT,,0.00,WeatherDisplay:10.37,2013-05-27 04:02:00,
2013-05-27 00:03:00,43.2,41.0,30.25,NNE,22,0.0,0.0,92,0.00,SCT,,0.00,WeatherDisplay:10.37,2013-05-27 04:03:00,
2013-05-27 00:04:00,43.2,40.8,30.25,NNE,22,0.0,0.0,91,0.00,SCT,,0.00,WeatherDisplay:10.37,2013-05-27 04:04:00,
2013-05-27 00:09:00,42.8,40.9,30.25,NNE,22,0.0,0.0,93,0.00,SCT,SCT,0.00,WeatherDisplay:10.37,2013-05-27 04:09:00,
2013-05-27 00:15:00,42.3,41.2,30.25,NNE,22,0.0,0.0,96,0.00,SCT,,0.00,WeatherDisplay:10.37,2013-05-27 04:15:00,
2013-05-27 00:20:00,42.1,41.0,30.25,NNE,22,0.0,0.0,96,0.00,SCT,,0.00,WeatherDisplay:10.37,2013-05-27 04:20:00,
2013-05-27 00:25:00,41.9,40.8,30.25,NNE,22,0.0,0.0,96,0.00,SCT,,0.00,WeatherDisplay:10.37,2013-05-27 04:25:00,
2013-05-27 00:30:00,41.9,40.8,30.25,NNE,22,0.0,0.0,96,0.00,SCT,,0.00,WeatherDisplay:10.37,2013-05-27 04:30:00,
2013-05-27 00:35:00,41.9,40.6,30.25,NNE,22,0.0,0.0,95,0.00,SCT,,0.00,WeatherDisplay:10.37,2013-05-27 04:35:00,
2013-05-27 00:40:00,41.7,40.4,30.25,NNE,22,0.0,0.0,95,0.00,SCT,,0.00,WeatherDisplay:10.37,2013-05-27 04:40:00,
2013-05-27 00:45:00,41.7,40.4,30.25,NNE,22,0.0,0.0,95,0.00,SCT,,0.00,WeatherDisplay:10.37,2013-05-27 04:45:00,
2013-05-27 00:50:00,41.4,40.3,30.26,NNE,22,0.0,0.0,96,0.00,SCT,,0.00,WeatherDisplay:10.37,2013-05-27 04:50:00,
2013-05-27 00:55:00,41.2,40.1,30.26,NNE,22,0.0,0.0,96,0.00,SCT,,0.00,WeatherDisplay:10.37,2013-05-27 04:55:00,
2013-05-27 01:00:00,40.8,40.0,30.26,NNE,22,0.0,0.0,97,0.00,SCT,,0.00,WeatherDisplay:10.37,2013-05-27 05:00:00,
2013-05-27 01:05:00,40.6,39.8,30.26,NNE,22,0.0,0.0,97,0.00,SCT,,0.00,WeatherDisplay:10.37,2013-05-27 05:05:00,
2013-05-27 01:10:00,40.6,39.8,30.26,NNE,22,0.0,0.0,97,0.00,SCT,,0.00,WeatherDisplay:10.37,2013-05-27 05:10:00,
2013-05-27 01:15:00,40.5,39.7,30.26,NNE,22,0.0,0.0,97,0.00,SCT,,0.00,WeatherDisplay:10.37,2013-05-27 05:15:00,
2013-05-27 01:20:00,40.5,39.4,30.26,NNE,22,0.0,0.0,96,0.00,SCT,,0.00,WeatherDisplay:10.37,2013-05-27 05:20:00,
2013-05-27 01:25:00,40.3,39.3,30.26,NNE,22,0.0,0.0,96,0.00,SCT,,0.00,WeatherDisplay:10.37,2013-05-27 05:25:00,
2013-05-27 01:30:00,40.1,39.1,30.27,NNE,22,0.0,0.0,96,0.00,SCT,,0.00,WeatherDisplay:10.37,2013-05-27 05:30:00,
2013-05-27 01:35:00,40.1,39.1,30.27,NNE,22,0.0,0.0,96,0.00,SCT,,0.00,WeatherDisplay:10.37,2013-05-27 05:35:00,
2013-05-27 01:40:00,39.9,38.9,30.26,NNE,22,0.0,0.0,96,0.00,SCT,,0.00,WeatherDisplay:10.37,2013-05-27 05:40:00,
2013-05-27 01:45:00,39.7,38.9,30.26,NNE,22,0.0,0.0,97,0.00,SCT,,0.00,WeatherDisplay:10.37,2013-05-27 05:45:00,
2013-05-27 01:50:00,39.4,38.6,30.26,NNE,22,0.0,0.0,97,0.00,SCT,,0.00,WeatherDisplay:10.37,2013-05-27 05:50:00,
2013-05-27 01:55:00,39.2,38.4,30.26,NNE,22,0.0,0.0,97,0.00,SCT,,0.00,WeatherDisplay:10.37,2013-05-27 05:55:00,
2013-05-27 02:00:00,39.0,38.5,30.26,NNE,22,0.0,0.0,98,0.00,SCT,,0.00,WeatherDisplay:10.37,2013-05-27 06:00:00,
2013-05-27 02:05:00,38.8,38.3,30.26,NNE,22,0.0,0.0,98,0.00,SCT,,0.00,WeatherDisplay:10.37,2013-05-27 06:05:00,
2013-05-27 02:10:00,39.0,38.5,30.26,NNE,22,0.0,0.0,98,0.00,SCT,,0.00,WeatherDisplay:10.37,2013-05-27 06:10:00,
2013-05-27 02:15:00,39.2,38.7,30.26,NNE,22,0.0,0.0,98,0.00,SCT,,0.00,WeatherDisplay:10.37,2013-05-27 06:15:00,
2013-05-27 02:20:00,38.7,38.2,30.26,NNE,22,0.0,0.0,98,0.00,SCT,,0.00,WeatherDisplay:10.37,2013-05-27 06:20:00,
2013-05-27 02:25:00,38.7,38.4,30.26,NNE,22,0.0,0.0,99,0.00,SCT,,0.00,WeatherDisplay:10.37,2013-05-27 06:25:00,
2013-05-27 02:30:00,38.5,38.2,30.26,NNE,22,0.0,0.0,99,0.00,SCT,,0.00,WeatherDisplay:10.37,2013-05-27 06:30:00,
2013-05-27 02:35:00,38.5,38.5,30.26,NNE,22,0.0,0.0,100,0.00,SCT,,0.00,WeatherDisplay:10.37,2013-05-27 06:35:00,
2013-05-27 02:40:00,38.5,38.5,30.25,NNE,22,0.0,0.0,100,0.00,SCT,,0.00,WeatherDisplay:10.37,2013-05-27 06:40:00,
2013-05-27 02:45:00,38.5,38.5,30.25,NNE,22,0.0,0.0,100,0.00,SCT,,0.00,WeatherDisplay:10.37,2013-05-27 06:45:00,
2013-05-27 02:50:00,38.3,38.0,30.26,NNE,22,0.0,0.0,99,0.00,SCT,,0.00,WeatherDisplay:10.37,2013-05-27 06:50:00,
2013-05-27 02:55:00,38.1,38.1,30.26,NNE,22,0.0,0.0,100,0.00,SCT,,0.00,WeatherDisplay:10.37,2013-05-27 06:55:00,
2013-05-27 03:00:00,38.1,38.1,30.26,NNE,22,0.0,0.0,100,0.00,SCT,,0.00,WeatherDisplay:10.37,2013-05-27 07:00:00,
2013-05-27 03:05:00,37.9,37.9,30.25,NNE,22,0.0,0.0,100,0.00,SCT,,0.00,WeatherDisplay:10.37,2013-05-27 07:05:00,
2013-05-27 03:10:00,37.9,37.9,30.25,NNE,22,0.0,0.0,100,0.00,SCT,,0.00,WeatherDisplay:10.37,2013-05-27 07:10:00,
2013-05-27 03:15:00,37.8,37.8,30.25,NNE,22,0.0,0.0,100,0.00,SCT,,0.00,WeatherDisplay:10.37,2013-05-27 07:15:00,
2013-05-27 03:20:00,37.6,37.6,30.25,NNE,22,0.0,0.0,100,0.00,SCT,,0.00,WeatherDisplay:10.37,2013-05-27 07:20:00,
2013-05-27 03:25:00,37.4,37.4,30.25,NNE,22,0.0,0.0,100,0.00,SCT,,0.00,WeatherDisplay:10.37,2013-05-27 07:25:00,
2013-05-27 03:30:00,37.6,37.6,30.25,NNE,22,0.0,0.0,100,0.00,SCT,,0.00,WeatherDisplay:10.37,2013-05-27 07:30:00,
2013-05-27 03:35:00,37.4,37.1,30.25,NNE,22,0.0,0.0,99,0.00,SCT,,0.00,WeatherDisplay:10.37,2013-05-27 07:35:00,
2013-05-27 03:40:00,37.2,36.9,30.26,NNE,22,0.0,0.0,99,0.00,SCT,,0.00,WeatherDisplay:10.37,2013-05-27 07:40:00,
2013-05-27 03:45:00,37.0,36.7,30.26,NNE,22,0.0,0.0,99,0.00,SCT,,0.00,WeatherDisplay:10.37,2013-05-27 07:45:00,
2013-05-27 03:50:00,36.9,36.9,30.26,NNE,22,0.0,0.0,100,0.00,SCT,,0.00,WeatherDisplay:10.37,2013-05-27 07:50:00,
2013-05-27 03:55:00,36.9,36.9,30.25,NNE,22,0.0,0.0,100,0.00,SCT,,0.00,WeatherDisplay:10.37,2013-05-27 07:55:00,
2013-05-27 04:00:00,36.9,36.9,30.25,NNE,22,0.0,0.0,100,0.00,SCT,,0.00,WeatherDisplay:10.37,2013-05-27 08:00:00,
2013-05-27 04:05:00,36.9,36.6,30.25,NNE,22,0.0,0.0,99,0.00,SCT,,0.00,WeatherDisplay:10.37,2013-05-27 08:05:00,
2013-05-27 04:10:00,36.7,36.4,30.25,NNE,22,0.0,0.0,99,0.00,SCT,,0.00,WeatherDisplay:10.37,2013-05-27 08:10:00,
2013-05-27 04:15:00,36.3,36.3,30.25,NNE,22,0.0,0.0,100,0.00,SCT,,0.00,WeatherDisplay:10.37,2013-05-27 08:15:00,
2013-05-27 04:20:00,36.3,36.3,30.25,NNE,22,0.0,0.0,100,0.00,SCT,,0.00,WeatherDisplay:10.37,2013-05-27 08:20:00,
2013-05-27 04:25:00,36.1,36.1,30.25,NNE,22,0.0,0.0,100,0.00,SCT,,0.00,WeatherDisplay:10.37,2013-05-27 08:25:00,
2013-05-27 04:30:00,36.3,36.3,30.25,NNE,22,0.0,0.0,100,0.00,SCT,,0.00,WeatherDisplay:10.37,2013-05-27 08:30:00,
2013-05-27 04:35:00,36.5,36.5,30.25,NNE,22,0.0,0.0,100,0.00,SCT,,0.00,WeatherDisplay:10.37,2013-05-27 08:35:00,
2013-05-27 04:40:00,36.5,36.5,30.25,NNE,22,0.0,0.0,100,0.00,SCT,,0.00,WeatherDisplay:10.37,2013-05-27 08:40:00,
2013-05-27 04:45:00,36.5,36.5,30.25,NNE,22,0.0,0.0,100,0.00,SCT,,0.00,WeatherDisplay:10.37,2013-05-27 08:45:00,
2013-05-27 04:50:00,36.0,36.0,30.25,NNE,22,0.0,0.0,100,0.00,SCT,,0.00,WeatherDisplay:10.37,2013-05-27 08:50:00,
2013-05-27 04:55:00,35.8,35.8,30.25,NNE,22,0.0,0.0,100,0.00,SCT,,0.00,WeatherDisplay:10.37,2013-05-27 08:55:00,
2013-05-27 05:00:00,35.8,35.8,30.25,NNE,22,0.0,0.0,100,0.00,SCT,,0.00,WeatherDisplay:10.37,2013-05-27 09:00:00,
2013-05-27 05:05:00,35.8,35.8,30.24,NNE,22,0.0,0.0,100,0.00,SCT,,0.00,WeatherDisplay:10.37,2013-05-27 09:05:00,
2013-05-27 05:10:00,35.8,35.8,30.24,NNE,22,0.0,0.0,100,0.00,SCT,,0.00,WeatherDisplay:10.37,2013-05-27 09:10:00,
2013-05-27 05:15:00,35.4,35.4,30.25,NNE,22,0.0,0.0,100,0.00,SCT,,0.00,WeatherDisplay:10.37,2013-05-27 09:15:00,
2013-05-27 05:20:00,35.6,35.6,30.25,NNE,22,0.0,0.0,100,0.00,SCT,,0.00,WeatherDisplay:10.37,2013-05-27 09:20:00,
2013-05-27 05:25:00,35.6,35.6,30.25,NNE,22,0.0,0.0,100,0.00,SCT,,0.00,WeatherDisplay:10.37,2013-05-27 09:25:00,
2013-05-27 05:30:00,35.4,35.4,30.25,NNE,22,0.0,0.0,100,0.00,SCT,,0.00,WeatherDisplay:10.37,2013-05-27 09:30:00,
2013-05-27 05:35:00,35.4,35.4,30.25,NNE,22,0.0,0.0,100,0.00,SCT,,0.00,WeatherDisplay:10.37,2013-05-27 09:35:00,
2013-05-27 05:40:00,35.8,35.8,30.25,NNE,22,0.0,0.0,100,0.00,SCT,,0.00,WeatherDisplay:10.37,2013-05-27 09:40:00,
2013-05-27 05:45:00,35.4,35.4,30.25,NNE,22,0.0,0.0,100,0.00,SCT,,0.00,WeatherDisplay:10.37,2013-05-27 09:45:00,
2013-05-27 05:50:00,35.2,35.2,30.25,NNE,22,0.0,0.0,100,0.00,SCT,,0.00,WeatherDisplay:10.37,2013-05-27 09:50:00,
2013-05-27 05:55:00,35.4,35.4,30.25,NNE,22,0.0,0.0,100,0.00,SCT,,0.00,WeatherDisplay:10.37,2013-05-27 09:55:00,
2013-05-27 06:00:00,35.2,35.2,30.25,NNE,22,0.0,0.0,100,0.00,SCT,,0.00,WeatherDisplay:10.37,2013-05-27 10:00:00,
2013-05-27 06:05:00,35.2,35.2,30.26,NNE,22,0.0,0.0,100,0.00,BKN,,0.00,WeatherDisplay:10.37,2013-05-27 10:05:00,
2013-05-27 06:10:00,35.4,35.4,30.26,NNE,22,0.0,0.0,100,0.00,BKN,,0.00,WeatherDisplay:10.37,2013-05-27 10:10:00,
2013-05-27 06:15:00,35.2,35.2,30.25,NNE,22,0.0,0.0,100,0.00,BKN,,0.00,WeatherDisplay:10.37,2013-05-27 10:15:00,
2013-05-27 06:20:00,35.2,35.2,30.25,NNE,22,0.0,0.0,100,0.00,BKN,,0.00,WeatherDisplay:10.37,2013-05-27 10:20:00,
2013-05-27 06:25:00,35.4,35.4,30.25,NNE,22,0.0,0.0,100,0.00,BKN,,0.00,WeatherDisplay:10.37,2013-05-27 10:25:00,
2013-05-27 06:30:00,35.6,35.6,30.25,NNE,22,0.0,0.0,100,0.00,BKN,,0.00,WeatherDisplay:10.37,2013-05-27 10:30:00,
2013-05-27 06:35:00,36.1,36.1,30.25,NNE,22,0.0,0.0,100,0.00,BKN,,0.00,WeatherDisplay:10.37,2013-05-27 10:35:00,
2013-05-27 06:40:00,36.3,36.3,30.26,NNE,22,0.0,0.0,100,0.00,BKN,,0.00,WeatherDisplay:10.37,2013-05-27 10:40:00,
2013-05-27 06:45:00,36.7,36.7,30.26,NNE,22,0.0,0.0,100,0.00,BKN,,0.00,WeatherDisplay:10.37,2013-05-27 10:45:00,
2013-05-27 06:50:00,37.0,37.0,30.26,NNE,22,0.0,0.0,100,0.00,BKN,,0.00,WeatherDisplay:10.37,2013-05-27 10:50:00,
2013-05-27 06:55:00,37.4,37.4,30.26,NNE,22,0.0,0.0,100,0.00,BKN,,0.00,WeatherDisplay:10.37,2013-05-27 10:55:00,
2013-05-27 07:00:00,38.3,38.3,30.26,NNE,22,0.0,0.0,100,0.00,BKN,,0.00,WeatherDisplay:10.37,2013-05-27 11:00:00,
2013-05-27 07:05:00,39.7,39.7,30.26,NNE,22,0.0,0.0,100,0.00,BKN,,0.00,WeatherDisplay:10.37,2013-05-27 11:05:00,
2013-05-27 07:10:00,41.0,40.5,30.26,NNE,22,0.0,0.0,98,0.00,BKN,,0.00,WeatherDisplay:10.37,2013-05-27 11:10:00,
2013-05-27 07:15:00,41.9,40.8,30.26,NNE,22,0.0,0.0,96,0.00,BKN,,0.00,WeatherDisplay:10.37,2013-05-27 11:15:00,
2013-05-27 07:20:00,42.6,41.0,30.26,NNE,22,0.0,0.0,94,0.00,BKN,,0.00,WeatherDisplay:10.37,2013-05-27 11:20:00,
2013-05-27 07:25:00,43.2,40.5,30.26,NNE,22,0.0,0.0,90,0.00,BKN,,0.00,WeatherDisplay:10.37,2013-05-27 11:25:00,
2013-05-27 07:30:00,44.1,41.1,30.25,NNE,22,0.0,2.3,89,0.00,BKN,,0.00,WeatherDisplay:10.37,2013-05-27 11:30:00,
2013-05-27 07:35:00,44.8,42.0,30.25,NNE,22,0.0,0.0,90,0.00,BKN,,0.00,WeatherDisplay:10.37,2013-05-27 11:35:00,
2013-05-27 07:40:00,45.5,41.9,30.25,NNE,22,0.0,0.0,87,0.00,BKN,,0.00,WeatherDisplay:10.37,2013-05-27 11:40:00,
2013-05-27 07:45:00,46.4,41.8,30.25,NNE,22,0.0,0.0,84,0.00,BKN,,0.00,WeatherDisplay:10.37,2013-05-27 11:45:00,
2013-05-27 07:50:00,48.0,42.4,30.25,NNE,22,0.0,0.0,81,0.00,BKN,,0.00,WeatherDisplay:10.37,2013-05-27 11:50:00,
2013-05-27 07:55:00,49.5,42.9,30.25,NNE,22,0.0,0.0,78,0.00,BKN,,0.00,WeatherDisplay:10.37,2013-05-27 11:55:00,
2013-05-27 08:00:00,49.8,43.5,30.25,SW,225,0.1,2.3,79,0.00,BKN,,0.00,WeatherDisplay:10.37,2013-05-27 12:00:00,
2013-05-27 08:05:00,48.6,42.0,30.26,SW,225,0.0,0.0,78,0.00,BKN,,0.00,WeatherDisplay:10.37,2013-05-27 12:05:00,
2013-05-27 08:10:00,48.7,43.5,30.26,SSW,202,2.7,2.7,82,0.00,BKN,,0.00,WeatherDisplay:10.37,2013-05-27 12:10:00,
2013-05-27 08:15:00,49.3,43.7,30.26,SSE,158,3.3,4.4,81,0.00,BKN,,0.00,WeatherDisplay:10.37,2013-05-27 12:15:00,
2013-05-27 08:20:00,51.1,44.5,30.26,SSE,158,0.0,0.0,78,0.00,BKN,,0.00,WeatherDisplay:10.37,2013-05-27 12:20:00,
2013-05-27 08:25:00,54.9,44.9,30.26,SSE,158,2.8,3.6,69,0.00,BKN,,0.00,WeatherDisplay:10.37,2013-05-27 12:25:00,
2013-05-27 08:30:00,55.4,45.8,30.26,NW,315,0.9,2.3,70,0.00,BKN,,0.00,WeatherDisplay:10.37,2013-05-27 12:30:00,
2013-05-27 08:35:00,56.1,44.5,30.26,NNE,22,2.3,3.6,65,0.00,BKN,,0.00,WeatherDisplay:10.37,2013-05-27 12:35:00,
2013-05-27 08:40:00,56.7,44.2,30.26,NNE,22,2.7,2.7,63,0.00,BKN,,0.00,WeatherDisplay:10.37,2013-05-27 12:40:00,
2013-05-27 08:45:00,56.3,44.7,30.26,NNE,22,0.0,0.0,65,0.00,BKN,,0.00,WeatherDisplay:10.37,2013-05-27 12:45:00,
2013-05-27 08:50:00,55.0,44.6,30.26,ENE,68,1.0,3.6,68,0.00,BKN,,0.00,WeatherDisplay:10.37,2013-05-27 12:50:00,
2013-05-27 08:55:00,55.8,44.6,30.26,ENE,68,3.7,4.6,66,0.00,BKN,,0.00,WeatherDisplay:10.37,2013-05-27 12:55:00,
2013-05-27 09:00:00,57.7,45.2,30.26,East,90,3.4,4.6,63,0.00,BKN,,0.00,WeatherDisplay:10.37,2013-05-27 13:00:00,
2013-05-27 09:05:00,57.9,45.0,30.26,East,90,0.4,4.6,62,0.00,BKN,,0.00,WeatherDisplay:10.37,2013-05-27 13:05:00,
2013-05-27 09:10:00,57.7,44.8,30.26,East,90,3.4,3.6,62,0.00,BKN,,0.00,WeatherDisplay:10.37,2013-05-27 13:10:00,
2013-05-27 09:15:00,56.3,45.1,30.27,East,90,2.1,2.7,66,0.00,BKN,,0.00,WeatherDisplay:10.37,2013-05-27 13:15:00,
2013-05-27 09:20:00,57.6,44.2,30.27,West,270,0.0,0.0,61,0.00,BKN,,0.00,WeatherDisplay:10.37,2013-05-27 13:20:00,
2013-05-27 09:25:00,58.5,45.5,30.27,South,180,2.7,2.7,62,0.00,BKN,,0.00,WeatherDisplay:10.37,2013-05-27 13:25:00,
2013-05-27 09:30:00,60.3,44.5,30.27,South,180,2.8,3.6,56,0.00,BKN,,0.00,WeatherDisplay:10.37,2013-05-27 13:30:00,
2013-05-27 09:35:00,64.4,44.3,30.27,ESE,112,0.8,4.6,48,0.00,BKN,,0.00,WeatherDisplay:10.37,2013-05-27 13:35:00,
2013-05-27 09:40:00,63.5,43.4,30.26,SSE,158,3.5,5.8,48,0.00,BKN,,0.00,WeatherDisplay:10.37,2013-05-27 13:40:00,
2013-05-27 09:45:00,63.9,43.3,30.26,SSE,158,3.0,3.6,47,0.00,BKN,,0.00,WeatherDisplay:10.37,2013-05-27 13:45:00,
2013-05-27 09:50:00,65.8,42.1,30.26,East,90,1.7,4.6,42,0.00,BKN,,0.00,WeatherDisplay:10.37,2013-05-27 13:50:00,
2013-05-27 09:55:00,65.1,42.6,30.26,East,90,0.0,0.0,44,0.00,BKN,,0.00,WeatherDisplay:10.37,2013-05-27 13:55:00,
2013-05-27 10:00:00,63.3,42.7,30.26,SSE,158,1.7,2.7,47,0.00,BKN,,0.00,WeatherDisplay:10.37,2013-05-27 14:00:00,
2013-05-27 10:05:00,61.9,44.1,30.25,SSE,158,1.7,2.7,52,0.00,OVC,,0.00,WeatherDisplay:10.37,2013-05-27 14:05:00,
2013-05-27 10:10:00,63.5,43.4,30.25,SSE,158,0.0,0.0,48,0.00,OVC,,0.00,WeatherDisplay:10.37,2013-05-27 14:10:00,
2013-05-27 10:15:00,66.2,44.2,30.25,East,90,2.5,3.5,45,0.00,OVC,,0.00,WeatherDisplay:10.37,2013-05-27 14:15:00,
2013-05-27 10:20:00,66.7,44.1,30.25,East,90,0.0,2.3,44,0.00,OVC,,0.00,WeatherDisplay:10.37,2013-05-27 14:20:00,
2013-05-27 10:25:00,64.0,43.4,30.25,East,90,0.0,0.0,47,0.00,OVC,,0.00,WeatherDisplay:10.37,2013-05-27 14:25:00,
2013-05-27 10:30:00,65.7,42.6,30.25,West,270,4.0,4.6,43,0.00,OVC,,0.00,WeatherDisplay:10.37,2013-05-27 14:30:00,
2013-05-27 10:35:00,65.1,42.6,30.25,NNW,338,1.8,4.6,44,0.00,OVC,,0.00,WeatherDisplay:10.37,2013-05-27 14:35:00,
2013-05-27 10:40:00,62.4,44.5,30.25,South,180,3.0,4.6,52,0.00,OVC,,0.00,WeatherDisplay:10.37,2013-05-27 14:40:00,
2013-05-27 10:45:00,62.8,43.9,30.25,WSW,248,0.1,2.7,50,0.00,OVC,,0.00,WeatherDisplay:10.37,2013-05-27 14:45:00,
2013-05-27 10:50:00,64.6,43.9,30.25,WSW,248,5.3,6.1,47,0.00,OVC,,0.00,WeatherDisplay:10.37,2013-05-27 14:50:00,
2013-05-27 10:55:00,64.6,44.5,30.25,South,180,1.7,2.7,48,0.00,OVC,,0.00,WeatherDisplay:10.37,2013-05-27 14:55:00,
2013-05-27 11:00:00,64.6,44.5,30.25,WNW,292,3.9,5.8,48,0.00,OVC,,0.00,WeatherDisplay:10.37,2013-05-27 15:00:00,
2013-05-27 11:05:00,63.0,45.1,30.25,South,180,2.6,3.6,52,0.00,OVC,,0.00,WeatherDisplay:10.37,2013-05-27 15:05:00,
2013-05-27 11:10:00,64.4,44.8,30.25,WSW,248,0.5,3.5,49,0.00,OVC,,0.00,WeatherDisplay:10.37,2013-05-27 15:10:00,
2013-05-27 11:15:00,65.5,45.8,30.25,West,270,0.1,2.3,49,0.00,OVC,,0.00,WeatherDisplay:10.37,2013-05-27 15:15:00,
2013-05-27 11:20:00,64.8,45.2,30.25,South,180,1.7,3.5,49,0.00,OVC,,0.00,WeatherDisplay:10.37,2013-05-27 15:20:00,
2013-05-27 11:25:00,64.4,45.3,30.25,East,90,2.2,3.5,50,0.00,OVC,,0.00,WeatherDisplay:10.37,2013-05-27 15:25:00,
2013-05-27 11:30:00,64.6,44.5,30.25,SE,135,0.3,3.5,48,0.00,OVC,,0.00,WeatherDisplay:10.37,2013-05-27 15:30:00,
2013-05-27 11:35:00,64.8,45.2,30.25,SE,135,1.6,2.7,49,0.00,BKN,,0.00,WeatherDisplay:10.37,2013-05-27 15:35:00,
2013-05-27 11:40:00,65.8,44.4,30.25,WSW,248,1.8,4.4,46,0.00,BKN,,0.00,WeatherDisplay:10.37,2013-05-27 15:40:00,
2013-05-27 11:45:00,65.3,45.1,30.25,South,180,0.0,2.3,48,0.00,BKN,,0.00,WeatherDisplay:10.37,2013-05-27 15:45:00,
2013-05-27 11:50:00,65.1,44.9,30.24,West,270,1.2,2.7,48,0.00,BKN,,0.00,WeatherDisplay:10.37,2013-05-27 15:50:00,
2013-05-27 11:55:00,65.1,45.5,30.24,South,180,0.0,0.0,49,0.00,BKN,,0.00,WeatherDisplay:10.37,2013-05-27 15:55:00,
2013-05-27 12:00:00,65.5,45.3,30.24,SW,225,0.2,2.7,48,0.00,BKN,,0.00,WeatherDisplay:10.37,2013-05-27 16:00:00,
2013-05-27 12:05:00,63.7,44.7,30.24,SSE,158,2.3,3.5,50,0.00,OVC,,0.00,WeatherDisplay:10.37,2013-05-27 16:05:00,
2013-05-27 12:10:00,64.6,45.0,30.24,WSW,248,4.4,5.8,49,0.00,OVC,,0.00,WeatherDisplay:10.37,2013-05-27 16:10:00,
2013-05-27 12:15:00,64.9,45.3,30.24,WNW,292,1.1,3.5,49,0.00,OVC,,0.00,WeatherDisplay:10.37,2013-05-27 16:15:00,
2013-05-27 12:20:00,64.0,46.0,30.24,NNW,338,0.0,0.0,52,0.00,OVC,,0.00,WeatherDisplay:10.37,2013-05-27 16:20:00,
2013-05-27 12:25:00,63.5,46.6,30.24,NW,315,2.8,3.6,54,0.00,OVC,,0.00,WeatherDisplay:10.37,2013-05-27 16:25:00,
2013-05-27 12:30:00,65.3,46.2,30.24,NW,315,0.0,0.0,50,0.00,OVC,,0.00,WeatherDisplay:10.37,2013-05-27 16:30:00,
2013-05-27 12:35:00,64.4,45.9,30.24,NNE,22,2.8,3.6,51,0.00,OVC,,0.00,WeatherDisplay:10.37,2013-05-27 16:35:00,
2013-05-27 12:40:00,64.4,45.9,30.24,NNE,22,0.0,0.0,51,0.00,OVC,,0.00,WeatherDisplay:10.37,2013-05-27 16:40:00,
2013-05-27 12:45:00,65.3,46.2,30.24,NNE,22,2.6,4.4,50,0.00,OVC,,0.00,WeatherDisplay:10.37,2013-05-27 16:45:00,
2013-05-27 12:50:00,64.2,45.7,30.24,SW,225,0.0,0.0,51,0.00,OVC,,0.00,WeatherDisplay:10.37,2013-05-27 16:50:00,
2013-05-27 12:55:00,65.5,44.7,30.24,West,270,0.8,2.3,47,0.00,OVC,,0.00,WeatherDisplay:10.37,2013-05-27 16:55:00,
2013-05-27 13:00:00,65.5,44.2,30.24,WSW,248,0.7,2.7,46,0.00,OVC,,0.00,WeatherDisplay:10.37,2013-05-27 17:00:00,
2013-05-27 13:05:00,66.0,44.6,30.24,WSW,248,2.6,2.7,46,0.00,OVC,,0.00,WeatherDisplay:10.37,2013-05-27 17:05:00,
2013-05-27 13:10:00,65.3,45.6,30.24,SSW,202,1.6,2.7,49,0.00,OVC,,0.00,WeatherDisplay:10.37,2013-05-27 17:10:00,
2013-05-27 13:15:00,65.3,45.1,30.24,West,270,0.7,4.6,48,0.00,OVC,,0.00,WeatherDisplay:10.37,2013-05-27 17:15:00,
2013-05-27 13:20:00,65.5,44.7,30.24,West,270,0.4,2.3,47,0.00,OVC,,0.00,WeatherDisplay:10.37,2013-05-27 17:20:00,
2013-05-27 13:25:00,65.1,45.5,30.24,East,90,0.3,2.3,49,0.00,OVC,,0.00,WeatherDisplay:10.37,2013-05-27 17:25:00,
2013-05-27 13:30:00,65.1,45.5,30.24,SW,225,0.3,4.6,49,0.00,OVC,,0.00,WeatherDisplay:10.37,2013-05-27 17:30:00,
2013-05-27 13:35:00,64.6,45.5,30.24,SSE,158,1.6,3.6,50,0.00,OVC,,0.00,WeatherDisplay:10.37,2013-05-27 17:35:00,
2013-05-27 13:40:00,64.6,45.0,30.23,West,270,3.5,4.4,49,0.00,OVC,,0.00,WeatherDisplay:10.37,2013-05-27 17:40:00,
2013-05-27 13:45:00,65.1,45.5,30.23,SW,225,3.3,4.6,49,0.00,OVC,,0.00,WeatherDisplay:10.37,2013-05-27 17:45:00,
2013-05-27 13:50:00,65.3,45.6,30.24,WSW,248,4.5,5.3,49,0.00,OVC,,0.00,WeatherDisplay:10.37,2013-05-27 17:50:00,
2013-05-27 13:55:00,64.4,46.4,30.24,South,180,3.7,4.6,52,0.00,OVC,,0.00,WeatherDisplay:10.37,2013-05-27 17:55:00,
2013-05-27 14:00:00,64.4,46.4,30.24,West,270,3.1,5.8,52,0.00,OVC,,0.00,WeatherDisplay:10.37,2013-05-27 18:00:00,
2013-05-27 14:05:00,64.2,46.7,30.23,SSW,202,5.6,6.9,53,0.00,OVC,,0.00,WeatherDisplay:10.37,2013-05-27 18:05:00,
2013-05-27 14:10:00,63.5,47.0,30.23,South,180,2.8,3.6,55,0.00,OVC,,0.00,WeatherDisplay:10.37,2013-05-27 18:10:00,
2013-05-27 14:15:00,63.0,47.5,30.23,SSE,158,3.7,4.6,57,0.00,OVC,,0.00,WeatherDisplay:10.37,2013-05-27 18:15:00,
2013-05-27 14:20:00,64.0,48.9,30.23,WSW,248,9.0,12.1,58,0.00,OVC,,0.00,WeatherDisplay:10.37,2013-05-27 18:20:00,
2013-05-27 14:25:00,63.3,50.5,30.23,West,270,4.1,6.9,63,0.00,OVC,,0.00,WeatherDisplay:10.37,2013-05-27 18:25:00,
2013-05-27 14:30:00,62.6,50.7,30.22,West,270,3.9,7.0,65,0.00,OVC,,0.00,WeatherDisplay:10.37,2013-05-27 18:30:00,
2013-05-27 14:36:00,61.3,48.6,30.22,SW,225,6.4,8.1,63,0.00,OVC,,0.00,WeatherDisplay:10.37,2013-05-27 18:36:00,
2013-05-27 14:41:00,61.2,48.9,30.22,SW,225,4.2,5.8,64,0.00,OVC,,0.00,WeatherDisplay:10.37,2013-05-27 18:41:00,
2013-05-27 14:46:00,61.0,48.7,30.22,SSE,158,3.9,4.6,64,0.00,OVC,,0.00,WeatherDisplay:10.37,2013-05-27 18:46:00,
2013-05-27 14:51:00,60.6,48.4,30.22,South,180,4.8,7.8,64,0.00,OVC,,0.00,WeatherDisplay:10.37,2013-05-27 18:51:00,
2013-05-27 14:56:00,60.4,47.3,30.22,South,180,5.3,9.2,62,0.00,OVC,,0.00,WeatherDisplay:10.37,2013-05-27 18:56:00,
2013-05-27 15:01:00,60.3,48.1,30.22,South,180,4.0,5.8,64,0.00,OVC,,0.00,WeatherDisplay:10.37,2013-05-27 19:01:00,
2013-05-27 15:06:00,60.6,49.2,30.21,SSW,202,2.5,3.5,66,0.00,OVC,,0.00,WeatherDisplay:10.37,2013-05-27 19:06:00,
2013-05-27 15:11:00,61.0,49.1,30.21,West,270,4.8,7.0,65,0.00,OVC,,0.00,WeatherDisplay:10.37,2013-05-27 19:11:00,
2013-05-27 15:16:00,60.8,49.0,30.21,SSW,202,3.3,4.6,65,0.00,OVC,,0.00,WeatherDisplay:10.37,2013-05-27 19:16:00,
2013-05-27 15:21:00,62.2,49.9,30.21,ESE,112,5.0,7.0,64,0.00,OVC,,0.00,WeatherDisplay:10.37,2013-05-27 19:21:00,
2013-05-27 15:26:00,62.6,50.2,30.21,SSE,158,2.8,5.8,64,0.00,OVC,,0.00,WeatherDisplay:10.37,2013-05-27 19:26:00,
2013-05-27 15:31:00,62.4,48.3,30.20,South,180,3.0,5.8,60,0.00,OVC,,0.00,WeatherDisplay:10.37,2013-05-27 19:31:00,
2013-05-27 15:36:00,63.5,47.0,30.20,East,90,5.1,7.0,55,0.00,OVC,,0.00,WeatherDisplay:10.37,2013-05-27 19:36:00,
2013-05-27 15:41:00,63.9,47.4,30.20,East,90,4.0,4.4,55,0.00,OVC,,0.00,WeatherDisplay:10.37,2013-05-27 19:41:00,
2013-05-27 15:46:00,63.3,47.8,30.20,ESE,112,3.6,4.6,57,0.00,OVC,,0.00,WeatherDisplay:10.37,2013-05-27 19:46:00,
2013-05-27 15:51:00,63.1,48.1,30.20,WSW,248,2.6,4.6,58,0.00,OVC,,0.00,WeatherDisplay:10.37,2013-05-27 19:51:00,
2013-05-27 15:56:00,62.4,48.8,30.20,SSW,202,1.8,2.7,61,0.00,OVC,,0.00,WeatherDisplay:10.37,2013-05-27 19:56:00,
2013-05-27 16:01:00,63.1,49.0,30.20,SSE,158,4.4,5.8,60,0.00,OVC,,0.00,WeatherDisplay:10.37,2013-05-27 20:01:00,
2013-05-27 16:06:00,62.8,50.0,30.20,West,270,3.9,4.4,63,0.00,OVC,,0.00,WeatherDisplay:10.37,2013-05-27 20:06:00,
2013-05-27 16:11:00,65.7,50.0,30.20,SSE,158,0.0,0.0,57,0.00,OVC,,0.00,WeatherDisplay:10.37,2013-05-27 20:11:00,
2013-05-27 16:16:00,64.2,50.0,30.20,SW,225,3.7,5.8,60,0.00,OVC,,0.00,WeatherDisplay:10.37,2013-05-27 20:16:00,
2013-05-27 16:21:00,64.8,49.7,30.20,SE,135,3.2,4.4,58,0.00,OVC,,0.00,WeatherDisplay:10.37,2013-05-27 20:21:00,
2013-05-27 16:26:00,66.2,49.1,30.20,West,270,2.4,4.6,54,0.00,OVC,,0.00,WeatherDisplay:10.37,2013-05-27 20:26:00,
2013-05-27 16:31:00,64.9,48.8,30.18,SE,135,3.6,5.8,56,0.00,OVC,,0.00,WeatherDisplay:10.37,2013-05-27 20:31:00,
2013-05-27 16:36:00,64.8,49.2,30.18,West,270,4.3,5.8,57,0.00,OVC,,0.00,WeatherDisplay:10.37,2013-05-27 20:36:00,
2013-05-27 16:41:00,64.4,49.8,30.18,West,270,3.9,6.1,59,0.00,OVC,,0.00,WeatherDisplay:10.37,2013-05-27 20:41:00,
2013-05-27 16:46:00,62.4,50.1,30.18,South,180,2.1,2.7,64,0.00,OVC,,0.00,WeatherDisplay:10.37,2013-05-27 20:46:00,
2013-05-27 16:51:00,62.1,50.6,30.18,SSW,202,3.9,4.6,66,0.00,OVC,,0.00,WeatherDisplay:10.37,2013-05-27 20:51:00,
2013-05-27 16:56:00,63.0,50.6,30.18,ESE,112,3.6,4.6,64,0.00,OVC,,0.00,WeatherDisplay:10.37,2013-05-27 20:56:00,
2013-05-27 17:01:00,63.0,50.6,30.18,ESE,112,3.6,3.6,64,0.00,BKN,,0.00,WeatherDisplay:10.37,2013-05-27 21:01:00,
2013-05-27 17:06:00,63.0,49.8,30.17,SSE,158,3.9,5.8,62,0.00,BKN,,0.00,WeatherDisplay:10.37,2013-05-27 21:06:00,
2013-05-27 17:11:00,63.9,49.7,30.17,SSE,158,2.8,3.6,60,0.00,BKN,,0.00,WeatherDisplay:10.37,2013-05-27 21:11:00,
2013-05-27 17:16:00,64.2,50.5,30.17,ENE,68,3.0,3.6,61,0.00,BKN,,0.00,WeatherDisplay:10.37,2013-05-27 21:16:00,
2013-05-27 17:21:00,62.8,50.4,30.17,ENE,68,0.3,4.6,64,0.00,BKN,,0.00,WeatherDisplay:10.37,2013-05-27 21:21:00,
2013-05-27 17:26:00,62.1,50.2,30.17,ENE,68,1.6,2.7,65,0.00,BKN,,0.00,WeatherDisplay:10.37,2013-05-27 21:26:00,
2013-05-27 17:32:00,63.0,48.9,30.17,ENE,68,2.3,4.6,60,0.00,BKN,,0.00,WeatherDisplay:10.37,2013-05-27 21:32:00,
2013-05-27 17:37:00,63.3,48.7,30.17,SSE,158,2.8,3.6,59,0.00,BKN,,0.00,WeatherDisplay:10.37,2013-05-27 21:37:00,
2013-05-27 17:42:00,63.5,48.0,30.16,SSE,158,2.1,3.5,57,0.00,BKN,,0.00,WeatherDisplay:10.37,2013-05-27 21:42:00,
2013-05-27 17:47:00,63.9,48.4,30.16,East,90,4.8,5.8,57,0.00,BKN,,0.00,WeatherDisplay:10.37,2013-05-27 21:47:00,
2013-05-27 17:52:00,63.5,48.9,30.16,East,90,0.0,2.3,59,0.00,BKN,,0.00,WeatherDisplay:10.37,2013-05-27 21:52:00,
2013-05-27 17:57:00,63.7,49.1,30.16,East,90,0.9,3.5,59,0.00,BKN,,0.00,WeatherDisplay:10.37,2013-05-27 21:57:00,
2013-05-27 18:02:00,63.5,48.9,30.16,East,90,4.2,5.8,59,0.00,BKN,,0.00,WeatherDisplay:10.37,2013-05-27 22:02:00,
2013-05-27 18:07:00,63.7,49.1,30.16,East,90,3.4,4.6,59,0.00,BKN,,0.00,WeatherDisplay:10.37,2013-05-27 22:07:00,
2013-05-27 18:12:00,63.3,48.7,30.16,ENE,68,4.8,5.8,59,0.00,BKN,,0.00,WeatherDisplay:10.37,2013-05-27 22:12:00,
2013-05-27 18:17:00,63.1,48.1,30.16,ENE,68,2.8,3.5,58,0.00,BKN,,0.00,WeatherDisplay:10.37,2013-05-27 22:17:00,
2013-05-27 18:22:00,63.0,47.5,30.16,NNE,22,4.8,6.1,57,0.00,BKN,,0.00,WeatherDisplay:10.37,2013-05-27 22:22:00,
2013-05-27 18:27:00,62.6,46.7,30.16,NE,45,3.6,4.6,56,0.00,BKN,,0.00,WeatherDisplay:10.37,2013-05-27 22:27:00,
2013-05-27 18:32:00,62.4,46.5,30.16,NE,45,5.3,7.0,56,0.00,BKN,,0.00,WeatherDisplay:10.37,2013-05-27 22:32:00,
2013-05-27 18:37:00,62.4,47.0,30.16,NNE,22,3.9,4.6,57,0.00,BKN,,0.00,WeatherDisplay:10.37,2013-05-27 22:37:00,
2013-05-27 18:42:00,62.2,46.8,30.16,ENE,68,4.1,4.6,57,0.00,BKN,,0.00,WeatherDisplay:10.37,2013-05-27 22:42:00,
2013-05-27 18:47:00,62.1,46.2,30.16,NE,45,4.5,7.0,56,0.00,BKN,,0.00,WeatherDisplay:10.37,2013-05-27 22:47:00,
2013-05-27 18:52:00,61.9,46.5,30.16,NE,45,3.7,4.6,57,0.00,BKN,,0.00,WeatherDisplay:10.37,2013-05-27 22:52:00,
2013-05-27 18:57:00,62.1,46.7,30.16,NE,45,3.2,3.6,57,0.00,BKN,,0.00,WeatherDisplay:10.37,2013-05-27 22:57:00,
2013-05-27 19:02:00,62.2,46.3,30.16,NE,45,4.6,6.1,56,0.00,BKN,,0.00,WeatherDisplay:10.37,2013-05-27 23:02:00,
2013-05-27 19:07:00,62.1,46.7,30.15,NE,45,4.2,5.8,57,0.00,BKN,,0.00,WeatherDisplay:10.37,2013-05-27 23:07:00,
2013-05-27 19:12:00,62.1,47.1,30.15,NE,45,0.0,2.3,58,0.00,BKN,,0.00,WeatherDisplay:10.37,2013-05-27 23:12:00,
2013-05-27 19:17:00,62.1,46.7,30.15,NNE,22,5.3,6.1,57,0.00,BKN,,0.00,WeatherDisplay:10.37,2013-05-27 23:17:00,
2013-05-27 19:22:00,61.9,46.5,30.15,NE,45,3.7,4.6,57,0.00,BKN,,0.00,WeatherDisplay:10.37,2013-05-27 23:22:00,
2013-05-27 19:27:00,61.9,47.0,30.14,NE,45,3.9,5.8,58,0.00,BKN,,0.00,WeatherDisplay:10.37,2013-05-27 23:27:00,
2013-05-27 19:32:00,61.5,47.0,30.14,SSE,158,3.4,4.6,59,0.00,BKN,,0.00,WeatherDisplay:10.37,2013-05-27 23:32:00,
2013-05-27 19:37:00,61.2,47.6,30.14,SSE,158,2.2,3.6,61,0.00,BKN,,0.00,WeatherDisplay:10.37,2013-05-27 23:37:00,
2013-05-27 19:42:00,60.8,47.7,30.13,SW,225,2.3,3.5,62,0.00,BKN,,0.00,WeatherDisplay:10.37,2013-05-27 23:42:00,
2013-05-27 19:47:00,60.8,48.1,30.13,West,270,1.0,2.3,63,0.00,BKN,,0.00,WeatherDisplay:10.37,2013-05-27 23:47:00,
2013-05-27 19:52:00,60.6,47.9,30.13,SSW,202,0.0,2.3,63,0.00,BKN,,0.00,WeatherDisplay:10.37,2013-05-27 23:52:00,
2013-05-27 19:57:00,60.4,47.7,30.13,NE,45,0.3,3.6,63,0.00,BKN,,0.00,WeatherDisplay:10.37,2013-05-27 23:57:00,
2013-05-27 20:02:00,60.4,48.6,30.13,NE,45,2.7,2.7,65,0.00,BKN,,0.00,WeatherDisplay:10.37,2013-05-28 00:02:00,
2013-05-27 20:07:00,59.9,49.7,30.14,NE,45,0.0,0.0,69,0.00,BKN,,0.00,WeatherDisplay:10.37,2013-05-28 00:07:00,
2013-05-27 20:12:00,59.5,49.7,30.14,NE,45,0.0,0.0,70,0.00,BKN,,0.00,WeatherDisplay:10.37,2013-05-28 00:12:00,
2013-05-27 20:17:00,59.0,50.0,30.14,NE,45,0.0,0.0,72,0.00,BKN,,0.00,WeatherDisplay:10.37,2013-05-28 00:17:00,
2013-05-27 20:22:00,58.6,49.2,30.14,NE,45,0.0,0.0,71,0.00,BKN,,0.00,WeatherDisplay:10.37,2013-05-28 00:22:00,
2013-05-27 20:27:00,58.3,49.3,30.14,NE,45,0.0,0.0,72,0.00,BKN,,0.00,WeatherDisplay:10.37,2013-05-28 00:27:00,
2013-05-27 20:32:00,58.1,49.5,30.14,NE,45,0.0,0.0,73,0.00,BKN,,0.00,WeatherDisplay:10.37,2013-05-28 00:32:00,
2013-05-27 20:37:00,58.1,49.5,30.14,NE,45,0.0,0.0,73,0.00,BKN,,0.00,WeatherDisplay:10.37,2013-05-28 00:37:00,
2013-05-27 20:42:00,58.1,48.7,30.13,NNE,22,3.7,5.8,71,0.00,BKN,,0.00,WeatherDisplay:10.37,2013-05-28 00:42:00,
2013-05-27 20:47:00,58.3,48.2,30.13,NE,45,5.1,5.8,69,0.00,BKN,,0.00,WeatherDisplay:10.37,2013-05-28 00:47:00,
2013-05-27 20:52:00,58.5,48.4,30.12,NE,45,4.2,4.6,69,0.00,BKN,,0.00,WeatherDisplay:10.37,2013-05-28 00:52:00,
2013-05-27 20:57:00,58.5,48.4,30.12,NE,45,2.5,4.6,69,0.00,BKN,,0.00,WeatherDisplay:10.37,2013-05-28 00:57:00,
2013-05-27 21:02:00,58.5,48.4,30.12,ENE,68,4.8,8.1,69,0.00,BKN,,0.00,WeatherDisplay:10.37,2013-05-28 01:02:00,
2013-05-27 21:07:00,58.5,48.4,30.12,NE,45,3.0,3.6,69,0.00,BKN,,0.00,WeatherDisplay:10.37,2013-05-28 01:07:00,
2013-05-27 21:12:00,58.5,48.4,30.12,NE,45,5.3,6.1,69,0.00,BKN,,0.00,WeatherDisplay:10.37,2013-05-28 01:12:00,
2013-05-27 21:17:00,58.5,48.4,30.12,ENE,68,3.2,4.6,69,0.00,BKN,,0.00,WeatherDisplay:10.37,2013-05-28 01:17:00,
2013-05-27 21:22:00,58.3,48.2,30.12,ENE,68,0.7,2.7,69,0.00,BKN,,0.00,WeatherDisplay:10.37,2013-05-28 01:22:00,
2013-05-27 21:27:00,58.1,48.0,30.12,ENE,68,3.2,4.6,69,0.00,BKN,,0.00,WeatherDisplay:10.37,2013-05-28 01:27:00,
2013-05-27 21:32:00,58.1,48.4,30.12,ENE,68,0.0,0.0,70,0.00,BKN,,0.00,WeatherDisplay:10.37,2013-05-28 01:32:00,
2013-05-27 21:37:00,57.9,48.6,30.12,NNE,22,2.1,4.6,71,0.00,BKN,,0.00,WeatherDisplay:10.37,2013-05-28 01:37:00,
2013-05-27 21:42:00,57.7,48.4,30.12,NNE,22,0.0,0.0,71,0.00,BKN,,0.00,WeatherDisplay:10.37,2013-05-28 01:42:00,
2013-05-27 21:47:00,57.4,48.8,30.12,NNE,22,0.0,0.0,73,0.00,BKN,,0.00,WeatherDisplay:10.37,2013-05-28 01:47:00,
2013-05-27 21:52:00,57.2,49.3,30.13,NNE,22,0.5,2.3,75,0.00,BKN,,0.00,WeatherDisplay:10.37,2013-05-28 01:52:00,
2013-05-27 21:57:00,56.8,49.3,30.13,NNE,22,0.0,0.0,76,0.00,BKN,,0.00,WeatherDisplay:10.37,2013-05-28 01:57:00,
2013-05-27 22:02:00,56.5,49.0,30.13,NNE,22,2.1,2.7,76,0.00,BKN,,0.00,WeatherDisplay:10.37,2013-05-28 02:02:00,
2013-05-27 22:07:00,56.5,49.0,30.13,NNE,22,0.0,0.0,76,0.00,BKN,,0.00,WeatherDisplay:10.37,2013-05-28 02:07:00,
2013-05-27 22:12:00,56.3,48.5,30.13,NNE,22,0.0,0.0,75,0.00,BKN,,0.00,WeatherDisplay:10.37,2013-05-28 02:12:00,
2013-05-27 22:17:00,56.3,48.8,30.11,NW,315,3.7,4.6,76,0.00,BKN,,0.00,WeatherDisplay:10.37,2013-05-28 02:17:00,
2013-05-27 22:22:00,56.1,48.6,30.11,NNW,338,0.0,2.3,76,0.00,BKN,,0.00,WeatherDisplay:10.37,2013-05-28 02:22:00,
2013-05-27 22:27:00,56.1,48.6,30.12,NNW,338,0.0,0.0,76,0.00,BKN,,0.00,WeatherDisplay:10.37,2013-05-28 02:27:00,
2013-05-27 22:32:00,56.1,49.0,30.12,NNW,338,0.0,0.0,77,0.00,BKN,,0.00,WeatherDisplay:10.37,2013-05-28 02:32:00,
2013-05-27 22:37:00,56.1,48.6,30.12,NNW,338,0.0,0.0,76,0.00,BKN,,0.00,WeatherDisplay:10.37,2013-05-28 02:37:00,
2013-05-27 22:42:00,56.1,48.6,30.11,NNW,338,0.0,0.0,76,0.00,BKN,,0.00,WeatherDisplay:10.37,2013-05-28 02:42:00,
2013-05-27 22:47:00,55.9,49.5,30.11,NNW,338,2.7,3.5,79,0.00,BKN,,0.00,WeatherDisplay:10.37,2013-05-28 02:47:00,
2013-05-27 22:52:00,55.9,49.5,30.11,NNW,338,0.0,0.0,79,0.00,BKN,,0.00,WeatherDisplay:10.37,2013-05-28 02:52:00,
2013-05-27 22:57:00,55.4,49.3,30.11,NNW,338,0.0,2.3,80,0.00,BKN,,0.00,WeatherDisplay:10.37,2013-05-28 02:57:00,
2013-05-27 23:02:00,55.4,49.0,30.11,NNW,338,0.0,0.0,79,0.00,BKN,,0.00,WeatherDisplay:10.37,2013-05-28 03:02:00,
2013-05-27 23:07:00,55.4,49.3,30.11,NNW,338,0.0,0.0,80,0.00,BKN,,0.00,WeatherDisplay:10.37,2013-05-28 03:07:00,
2013-05-27 23:12:00,55.4,49.3,30.11,NNW,338,0.0,0.0,80,0.00,BKN,,0.00,WeatherDisplay:10.37,2013-05-28 03:12:00,
2013-05-27 23:17:00,55.4,49.3,30.11,NNW,338,0.0,0.0,80,0.00,BKN,,0.00,WeatherDisplay:10.37,2013-05-28 03:17:00,
2013-05-27 23:22:00,55.4,49.7,30.11,NNW,338,0.0,0.0,81,0.00,BKN,,0.00,WeatherDisplay:10.37,2013-05-28 03:22:00,
2013-05-27 23:27:00,55.2,50.1,30.11,NNW,338,0.0,0.0,83,0.00,BKN,,0.00,WeatherDisplay:10.37,2013-05-28 03:27:00,
2013-05-27 23:32:00,55.0,49.3,30.11,NNW,338,0.0,0.0,81,0.00,BKN,,0.00,WeatherDisplay:10.37,2013-05-28 03:32:00,
2013-05-27 23:37:00,55.0,49.6,30.11,NNW,338,0.0,0.0,82,0.00,BKN,,0.00,WeatherDisplay:10.37,2013-05-28 03:37:00,
2013-05-27 23:42:00,54.9,49.5,30.11,NNW,338,0.0,0.0,82,0.00,BKN,,0.00,WeatherDisplay:10.37,2013-05-28 03:42:00,
2013-05-27 23:47:00,54.9,49.5,30.11,NNW,338,0.0,0.0,82,0.00,BKN,,0.00,WeatherDisplay:10.37,2013-05-28 03:47:00,
2013-05-27 23:52:00,54.7,49.6,30.11,NNW,338,0.0,0.0,83,0.00,BKN,,0.00,WeatherDisplay:10.37,2013-05-28 03:52:00,
2013-05-27 23:57:00,54.7,49.3,30.11,NNW,338,0.0,0.0,82,0.00,BKN,,0.00,WeatherDisplay:10.37,2013-05-28 03:57:00,